createdAt,value
2023-03-01T00:02:08.724Z,20.00
2023-03-01T00:04:36.661Z,20.01
2023-03-01T00:07:03.507Z,20.02
2023-03-01T00:09:30.003Z,20.02
2023-03-01T00:11:56.600Z,20.03
2023-03-01T00:14:23.253Z,20.03
2023-03-01T00:16:49.830Z,20.04
2023-03-01T00:19:19.065Z,20.05
2023-03-01T00:21:46.025Z,20.05
2023-03-01T00:24:13.873Z,20.05
2023-03-01T00:26:40.543Z,20.07
2023-03-01T00:29:07.392Z,20.01
2023-03-01T00:31:35.114Z,20.07
2023-03-01T00:34:04.937Z,19.99
2023-03-01T00:36:34.979Z,20.08
2023-03-01T00:39:02.557Z,20.08
2023-03-01T00:41:29.370Z,20.08
2023-03-01T00:43:56.178Z,20.08
2023-03-01T00:46:25.593Z,20.08
2023-03-01T00:48:52.356Z,20.04
2023-03-01T00:51:27.343Z,20.09
2023-03-01T00:53:56.318Z,20.09
2023-03-01T00:56:23.833Z,20.10
2023-03-01T00:58:50.855Z,20.01
2023-03-01T01:01:20.819Z,20.09
2023-03-01T01:03:50.177Z,20.09
2023-03-01T01:06:26.218Z,20.09
2023-03-01T01:08:54.088Z,20.09
2023-03-01T01:11:22.002Z,20.09
2023-03-01T01:13:50.099Z,20.09
2023-03-01T01:16:18.009Z,20.09
2023-03-01T01:18:45.492Z,20.09
2023-03-01T01:21:16.265Z,20.09
2023-03-01T01:23:44.514Z,20.00
2023-03-01T01:26:18.386Z,20.02
2023-03-01T01:28:47.197Z,20.03
2023-03-01T01:31:13.998Z,20.08
2023-03-01T01:33:40.593Z,20.07
2023-03-01T01:36:08.189Z,20.06
2023-03-01T01:38:36.288Z,20.07
2023-03-01T01:41:04.221Z,20.03
2023-03-01T01:43:43.464Z,20.05
2023-03-01T01:46:26.038Z,20.05
2023-03-01T01:49:02.924Z,20.04
2023-03-01T01:51:39.763Z,19.95
2023-03-01T01:54:32.459Z,20.03
2023-03-01T01:57:01.489Z,20.03
2023-03-01T01:59:29.983Z,20.02
2023-03-01T02:02:00.371Z,20.01
2023-03-01T02:04:27.006Z,20.02
2023-03-01T02:07:06.068Z,20.02
2023-03-01T02:09:33.291Z,20.01
2023-03-01T02:12:01.106Z,19.96
2023-03-01T02:14:27.693Z,20.01
2023-03-01T02:16:54.487Z,19.99
2023-03-01T02:19:35.078Z,20.00
2023-03-01T02:22:21.306Z,19.98
2023-03-01T02:25:22.045Z,19.98
2023-03-01T02:27:54.496Z,19.97
2023-03-01T02:30:22.938Z,19.97
2023-03-01T02:32:50.826Z,19.94
2023-03-01T02:35:20.117Z,19.96
2023-03-01T02:37:48.824Z,19.87
2023-03-01T02:40:19.318Z,19.94
2023-03-01T02:42:57.878Z,19.95
2023-03-01T02:45:25.562Z,19.94
2023-03-01T02:47:57.363Z,19.92
2023-03-01T02:50:45.618Z,19.91
2023-03-01T02:53:17.879Z,19.92
2023-03-01T02:55:44.618Z,19.91
2023-03-01T02:58:11.669Z,19.90
2023-03-01T03:00:46.351Z,19.90
2023-03-01T03:03:16.112Z,19.89
2023-03-01T03:05:43.596Z,19.87
2023-03-01T03:08:12.046Z,19.87
2023-03-01T03:10:41.452Z,19.86
2023-03-01T03:13:13.858Z,19.85
2023-03-01T03:15:41.875Z,19.77
2023-03-01T03:18:14.856Z,19.84
2023-03-01T03:20:43.388Z,19.83
2023-03-01T03:23:11.596Z,19.81
2023-03-01T03:25:38.771Z,19.81
2023-03-01T03:28:10.561Z,19.81
2023-03-01T03:30:41.032Z,19.80
2023-03-01T03:33:08.340Z,19.79
2023-03-01T03:35:55.239Z,19.79
2023-03-01T03:38:22.823Z,19.77
2023-03-01T03:41:06.178Z,19.77
2023-03-01T03:43:34.769Z,19.76
2023-03-01T03:46:02.261Z,19.76
2023-03-01T03:48:29.130Z,19.76
2023-03-01T03:50:57.072Z,19.73
2023-03-01T03:53:25.712Z,19.72
2023-03-01T03:55:53.052Z,19.71
2023-03-01T03:58:21.627Z,19.72
2023-03-01T04:00:50.453Z,19.71
2023-03-01T04:03:19.669Z,19.61
2023-03-01T04:05:46.691Z,19.69
2023-03-01T04:08:13.445Z,19.69
2023-03-01T04:10:42.882Z,19.69
2023-03-01T04:13:12.867Z,19.67
2023-03-01T04:15:40.141Z,19.67
2023-03-01T04:18:07.893Z,19.65
2023-03-01T04:20:36.328Z,19.65
2023-03-01T04:23:11.986Z,19.63
2023-03-01T04:25:42.070Z,19.64
2023-03-01T04:28:10.009Z,19.62
2023-03-01T04:30:38.012Z,19.51
2023-03-01T04:33:06.759Z,19.60
2023-03-01T04:35:33.838Z,19.59
2023-03-01T04:38:00.434Z,19.59
2023-03-01T04:40:27.517Z,19.59
2023-03-01T04:42:54.166Z,19.58
2023-03-01T04:45:20.786Z,19.57
2023-03-01T04:47:47.799Z,19.56
2023-03-01T04:50:18.359Z,19.55
2023-03-01T04:52:45.225Z,19.55
2023-03-01T04:55:12.009Z,19.54
2023-03-01T04:57:38.680Z,19.54
2023-03-01T05:00:22.024Z,19.51
2023-03-01T05:02:57.284Z,19.53
2023-03-01T05:05:28.794Z,19.52
2023-03-01T05:07:57.898Z,19.49
2023-03-01T05:10:25.977Z,19.44
2023-03-01T05:12:53.927Z,19.48
2023-03-01T05:15:22.594Z,19.47
2023-03-01T05:17:50.373Z,19.43
2023-03-01T05:20:17.340Z,19.46
2023-03-01T05:22:46.898Z,19.45
2023-03-01T05:25:14.944Z,19.46
2023-03-01T05:27:41.674Z,19.46
2023-03-01T05:30:14.912Z,19.45
2023-03-01T05:32:42.509Z,19.43
2023-03-01T05:35:09.205Z,19.43
2023-03-01T05:37:36.711Z,19.43
2023-03-01T05:40:04.581Z,19.43
2023-03-01T05:42:31.475Z,19.42
2023-03-01T05:44:57.972Z,19.42
2023-03-01T05:47:27.095Z,19.40
2023-03-01T05:49:53.665Z,19.40
2023-03-01T05:52:20.193Z,19.38
2023-03-01T05:54:46.910Z,19.36
2023-03-01T05:57:13.505Z,19.38
2023-03-01T05:59:40.115Z,19.36
2023-03-01T06:02:07.038Z,19.35
2023-03-01T06:04:33.559Z,19.35
2023-03-01T06:07:00.183Z,19.34
2023-03-01T06:09:26.991Z,19.34
2023-03-01T06:11:53.571Z,19.34
2023-03-01T06:14:21.797Z,19.32
2023-03-01T06:16:48.422Z,19.33
2023-03-01T06:19:14.922Z,19.31
2023-03-01T06:21:41.450Z,19.31
2023-03-01T06:24:09.325Z,19.30
2023-03-01T06:26:35.899Z,19.31
2023-03-01T06:29:02.374Z,19.29
2023-03-01T06:31:29.015Z,19.29
2023-03-01T06:33:55.540Z,19.29
2023-03-01T06:36:22.900Z,19.28
2023-03-01T06:38:49.455Z,19.30
2023-03-01T06:41:16.007Z,19.29
2023-03-01T06:43:42.513Z,19.30
2023-03-01T06:46:09.261Z,19.29
2023-03-01T06:48:36.183Z,19.23
2023-03-01T06:51:02.881Z,19.28
2023-03-01T06:53:30.493Z,19.27
2023-03-01T06:55:58.355Z,19.27
2023-03-01T06:58:24.899Z,19.27
2023-03-01T07:00:51.574Z,18.99
2023-03-01T07:03:18.168Z,19.28
2023-03-01T07:05:45.530Z,19.27
2023-03-01T07:08:12.094Z,19.27
2023-03-01T07:10:38.646Z,19.27
2023-03-01T07:13:07.743Z,19.27
2023-03-01T07:15:34.371Z,19.27
2023-03-01T07:18:00.836Z,19.28
2023-03-01T07:20:27.529Z,19.28
2023-03-01T07:22:55.747Z,19.28
2023-03-01T07:25:22.581Z,19.28
2023-03-01T07:27:53.280Z,19.25
2023-03-01T07:30:20.685Z,19.29
2023-03-01T07:32:47.400Z,19.30
2023-03-01T07:35:15.881Z,19.29
2023-03-01T07:37:42.555Z,19.31
2023-03-01T07:40:10.069Z,19.27
2023-03-01T07:42:36.610Z,19.30
2023-03-01T07:45:04.073Z,19.30
2023-03-01T07:47:30.951Z,19.29
2023-03-01T07:49:57.567Z,19.29
2023-03-01T07:52:24.405Z,19.29
2023-03-01T07:54:51.023Z,19.30
2023-03-01T07:57:17.621Z,19.29
2023-03-01T07:59:44.382Z,19.30
2023-03-01T08:02:11.542Z,19.29
2023-03-01T08:04:38.278Z,19.29
2023-03-01T08:07:06.529Z,19.30
2023-03-01T08:09:35.634Z,19.30
2023-03-01T08:12:02.196Z,19.30
2023-03-01T08:14:28.770Z,19.30
2023-03-01T08:16:56.236Z,19.30
2023-03-01T08:19:22.885Z,19.31
2023-03-01T08:21:49.386Z,19.32
2023-03-01T08:24:16.021Z,19.33
2023-03-01T08:26:42.655Z,19.32
2023-03-01T08:29:09.332Z,19.29
2023-03-01T08:31:40.050Z,19.34
2023-03-01T08:34:10.125Z,19.33
2023-03-01T08:36:39.659Z,19.34
2023-03-01T08:39:07.463Z,19.36
2023-03-01T08:41:34.346Z,19.36
2023-03-01T08:44:01.183Z,19.37
2023-03-01T08:46:35.644Z,19.37
2023-03-01T08:49:05.353Z,19.36
2023-03-01T08:51:37.414Z,19.36
2023-03-01T08:54:06.266Z,19.35
2023-03-01T08:56:33.516Z,19.36
2023-03-01T08:59:00.779Z,19.37
2023-03-01T09:01:27.368Z,19.38
2023-03-01T09:03:54.368Z,19.39
2023-03-01T09:06:21.124Z,19.38
2023-03-01T09:08:49.988Z,19.41
2023-03-01T09:11:19.770Z,19.41
2023-03-01T09:13:47.880Z,19.43
2023-03-01T09:16:17.582Z,19.34
2023-03-01T09:18:44.956Z,19.44
2023-03-01T09:21:16.898Z,19.45
2023-03-01T09:23:45.938Z,19.46
2023-03-01T09:26:17.520Z,19.47
2023-03-01T09:28:45.822Z,19.49
2023-03-01T09:31:15.952Z,19.50
2023-03-01T09:33:43.416Z,19.49
2023-03-01T09:36:16.552Z,19.52
2023-03-01T09:38:43.353Z,19.55
2023-03-01T09:41:51.160Z,19.55
2023-03-01T09:44:36.651Z,19.56
2023-03-01T09:47:07.027Z,19.58
2023-03-01T09:49:40.672Z,19.59
2023-03-01T09:52:27.084Z,19.61
2023-03-01T09:54:58.715Z,19.64
2023-03-01T09:57:41.181Z,19.65
2023-03-01T10:00:18.741Z,19.67
2023-03-01T10:03:18.070Z,19.70
2023-03-01T10:05:57.802Z,19.71
2023-03-01T10:08:34.646Z,19.72
2023-03-01T10:11:01.671Z,19.73
2023-03-01T10:13:46.938Z,19.74
2023-03-01T10:16:18.391Z,19.75
2023-03-01T10:18:50.072Z,19.76
2023-03-01T10:21:20.186Z,19.77
2023-03-01T10:23:50.480Z,19.75
2023-03-01T10:26:41.156Z,19.79
2023-03-01T10:29:15.615Z,19.81
2023-03-01T10:31:49.840Z,19.82
2023-03-01T10:34:34.261Z,19.85
2023-03-01T10:37:22.863Z,19.87
2023-03-01T10:40:10.591Z,19.89
2023-03-01T10:42:48.629Z,19.89
2023-03-01T10:45:17.611Z,19.90
2023-03-01T10:47:44.176Z,19.90
2023-03-01T10:50:31.751Z,19.92
2023-03-01T10:53:04.680Z,19.95
2023-03-01T10:55:39.419Z,19.96
2023-03-01T10:58:22.512Z,19.96
2023-03-01T11:01:03.691Z,19.98
2023-03-01T11:03:38.023Z,19.98
2023-03-01T11:06:22.545Z,19.98
2023-03-01T11:08:50.961Z,20.00
2023-03-01T11:11:34.161Z,20.01
2023-03-01T11:14:27.308Z,20.02
2023-03-01T11:17:32.898Z,20.03
2023-03-01T11:20:13.087Z,20.04
2023-03-01T11:22:50.860Z,20.05
2023-03-01T11:25:20.384Z,20.07
2023-03-01T11:27:48.100Z,20.08
2023-03-01T11:30:42.227Z,20.10
2023-03-01T11:33:08.795Z,20.10
2023-03-01T11:35:52.089Z,20.12
2023-03-01T11:38:25.129Z,20.14
2023-03-01T11:41:22.250Z,20.16
2023-03-01T11:44:30.500Z,20.16
2023-03-01T11:47:49.528Z,20.17
2023-03-01T11:50:16.077Z,20.18
2023-03-01T11:52:55.820Z,20.19
2023-03-01T11:55:44.022Z,20.21
2023-03-01T11:58:37.239Z,20.19
2023-03-01T12:01:10.438Z,20.20
2023-03-01T12:04:18.580Z,20.24
2023-03-01T12:06:45.171Z,20.24
2023-03-01T12:09:15.018Z,20.26
2023-03-01T12:12:00.340Z,20.27
2023-03-01T12:14:50.700Z,20.28
2023-03-01T12:17:32.497Z,20.30
2023-03-01T12:20:27.336Z,20.31
2023-03-01T12:23:21.054Z,20.32
2023-03-01T12:25:59.624Z,20.32
2023-03-01T12:28:47.468Z,20.34
2023-03-01T12:31:29.291Z,20.35
2023-03-01T12:34:09.827Z,20.37
2023-03-01T12:36:57.203Z,20.38
2023-03-01T12:39:59.258Z,20.39
2023-03-01T12:42:58.566Z,20.40
2023-03-01T12:45:54.502Z,20.39
2023-03-01T12:48:47.447Z,20.42
2023-03-01T12:51:17.156Z,20.32
2023-03-01T12:53:48.392Z,20.34
2023-03-01T12:56:20.730Z,20.43
2023-03-01T12:59:09.380Z,20.44
2023-03-01T13:01:57.644Z,20.45
2023-03-01T13:04:37.455Z,20.45
2023-03-01T13:07:25.894Z,20.46
2023-03-01T13:09:55.657Z,20.47
2023-03-01T13:12:50.364Z,20.47
2023-03-01T13:15:23.184Z,20.48
2023-03-01T13:17:54.446Z,20.41
2023-03-01T13:20:26.574Z,20.50
2023-03-01T13:23:27.853Z,20.49
2023-03-01T13:26:05.719Z,20.50
2023-03-01T13:28:49.814Z,20.51
2023-03-01T13:31:16.348Z,20.51
2023-03-01T13:33:48.198Z,20.51
2023-03-01T13:36:30.845Z,20.52
2023-03-01T13:38:59.910Z,20.52
2023-03-01T13:41:47.676Z,20.52
2023-03-01T13:44:36.989Z,20.51
2023-03-01T13:47:18.678Z,20.51
2023-03-01T13:50:03.661Z,20.51
2023-03-01T13:52:30.531Z,20.51
2023-03-01T13:54:57.914Z,20.50
2023-03-01T13:57:30.776Z,20.53
2023-03-01T13:59:57.439Z,20.55
2023-03-01T14:02:23.974Z,20.54
2023-03-01T14:04:58.807Z,20.54
2023-03-01T14:07:30.484Z,20.54
2023-03-01T14:12:22.368Z,20.57
2023-03-01T14:14:51.914Z,20.56
2023-03-01T14:17:42.694Z,20.56
2023-03-01T14:20:24.760Z,20.57
2023-03-01T14:22:55.513Z,20.56
2023-03-01T14:25:39.689Z,20.56
2023-03-01T14:28:18.686Z,20.56
2023-03-01T14:30:48.845Z,20.57
2023-03-01T14:33:35.720Z,20.57
2023-03-01T14:36:05.912Z,20.57
2023-03-01T14:38:38.422Z,20.58
2023-03-01T14:41:09.951Z,20.59
2023-03-01T14:43:40.065Z,20.57
2023-03-01T14:46:06.726Z,20.60
2023-03-01T14:48:33.474Z,20.60
2023-03-01T14:51:01.151Z,20.62
2023-03-01T14:53:34.113Z,20.63
2023-03-01T14:56:04.854Z,20.62
2023-03-01T14:58:34.709Z,20.63
2023-03-01T15:01:04.069Z,20.64
2023-03-01T15:03:46.589Z,20.65
2023-03-01T15:06:18.124Z,20.66
2023-03-01T15:08:52.196Z,20.66
2023-03-01T15:11:29.942Z,20.65
2023-03-01T15:13:56.653Z,20.67
2023-03-01T15:16:32.539Z,20.60
2023-03-01T15:19:05.295Z,20.69
2023-03-01T15:21:35.230Z,20.68
2023-03-01T15:24:06.455Z,20.70
2023-03-01T15:26:42.964Z,20.71
2023-03-01T15:29:18.718Z,20.72
2023-03-01T15:31:56.343Z,20.64
2023-03-01T15:34:28.989Z,20.73
2023-03-01T15:36:59.985Z,20.73
2023-03-01T15:39:34.013Z,20.74
2023-03-01T15:42:01.003Z,20.75
2023-03-01T15:44:42.762Z,20.75
2023-03-01T15:47:32.729Z,20.75
2023-03-01T15:50:01.178Z,20.75
2023-03-01T15:52:37.539Z,20.77
2023-03-01T15:55:15.109Z,20.76
2023-03-01T15:57:41.755Z,20.77
2023-03-01T16:00:14.582Z,20.77
2023-03-01T16:02:43.446Z,20.76
2023-03-01T16:05:21.338Z,20.78
2023-03-01T16:07:48.000Z,20.78
2023-03-01T16:10:14.621Z,20.70
2023-03-01T16:12:41.611Z,20.78
2023-03-01T16:15:19.604Z,20.78
2023-03-01T16:17:46.553Z,20.76
2023-03-01T16:20:28.794Z,20.75
2023-03-01T16:22:58.761Z,20.73
2023-03-01T16:25:25.234Z,20.74
2023-03-01T16:27:52.063Z,20.73
2023-03-01T16:30:22.030Z,20.71
2023-03-01T16:32:49.607Z,20.70
2023-03-01T16:35:19.248Z,20.71
2023-03-01T16:37:46.621Z,20.70
2023-03-01T16:40:22.424Z,20.70
2023-03-01T16:42:51.009Z,20.68
2023-03-01T16:45:24.314Z,20.66
2023-03-01T16:47:53.279Z,20.67
2023-03-01T16:50:21.748Z,20.66
2023-03-01T16:52:48.280Z,20.63
2023-03-01T16:55:14.897Z,20.65
2023-03-01T16:57:41.682Z,20.66
2023-03-01T17:00:11.625Z,20.65
2023-03-01T17:02:38.313Z,20.66
2023-03-01T17:05:08.967Z,20.64
2023-03-01T17:07:35.718Z,20.66
2023-03-01T17:10:03.888Z,20.67
2023-03-01T17:12:30.735Z,20.58
2023-03-01T17:14:57.252Z,20.66
2023-03-01T17:17:24.000Z,20.67
2023-03-01T17:19:50.581Z,20.66
2023-03-01T17:22:17.577Z,20.67
2023-03-01T17:24:47.637Z,20.65
2023-03-01T17:27:14.449Z,20.63
2023-03-01T17:29:41.362Z,20.64
2023-03-01T17:32:08.720Z,20.63
2023-03-01T17:34:35.678Z,20.56
2023-03-01T17:37:02.235Z,20.62
2023-03-01T17:39:35.955Z,20.61
2023-03-01T17:42:05.311Z,20.60
2023-03-01T17:44:35.077Z,20.53
2023-03-01T17:47:03.231Z,20.59
2023-03-01T17:49:30.224Z,20.50
2023-03-01T17:51:57.294Z,20.58
2023-03-01T17:54:24.478Z,20.59
2023-03-01T17:56:51.307Z,20.57
2023-03-01T17:59:18.567Z,20.47
2023-03-01T18:01:45.540Z,20.56
2023-03-01T18:04:12.162Z,20.55
2023-03-01T18:06:40.810Z,20.51
2023-03-01T18:09:08.461Z,20.46
2023-03-01T18:11:36.180Z,20.52
2023-03-01T18:14:04.204Z,20.52
2023-03-01T18:16:32.057Z,20.51
2023-03-01T18:18:59.776Z,20.51
2023-03-01T18:21:30.101Z,20.49
2023-03-01T18:23:57.551Z,20.49
2023-03-01T18:26:25.032Z,20.50
2023-03-01T18:28:53.772Z,20.49
2023-03-01T18:31:22.639Z,20.49
2023-03-01T18:33:51.793Z,20.48
2023-03-01T18:36:26.226Z,20.48
2023-03-01T18:38:55.364Z,20.46
2023-03-01T18:41:23.904Z,20.45
2023-03-01T18:43:51.357Z,20.46
2023-03-01T18:46:20.165Z,20.45
2023-03-01T18:48:48.121Z,20.46
2023-03-01T18:51:20.406Z,20.44
2023-03-01T18:53:47.172Z,20.44
2023-03-01T18:56:14.157Z,20.44
2023-03-01T18:58:44.986Z,20.42
2023-03-01T19:01:14.812Z,20.41
2023-03-01T19:03:41.326Z,20.40
2023-03-01T19:06:08.594Z,20.36
2023-03-01T19:08:35.095Z,20.37
2023-03-01T19:11:04.307Z,20.35
2023-03-01T19:13:31.867Z,20.33
2023-03-01T19:16:17.195Z,20.32
2023-03-01T19:18:51.366Z,20.30
2023-03-01T19:21:20.165Z,20.29
2023-03-01T19:23:48.703Z,20.27
2023-03-01T19:26:19.143Z,20.26
2023-03-01T19:28:47.052Z,20.16
2023-03-01T19:31:19.959Z,20.24
2023-03-01T19:33:47.623Z,20.22
2023-03-01T19:36:14.547Z,20.23
2023-03-01T19:38:42.370Z,20.24
2023-03-01T19:41:15.599Z,20.23
2023-03-01T19:43:48.473Z,20.23
2023-03-01T19:46:19.292Z,20.23
2023-03-01T19:48:47.068Z,20.14
2023-03-01T19:51:18.234Z,20.21
2023-03-01T19:53:55.973Z,20.21
2023-03-01T19:56:22.972Z,20.20
2023-03-01T19:58:51.017Z,20.19
2023-03-01T20:01:22.431Z,20.18
2023-03-01T20:03:49.852Z,20.17
2023-03-01T20:06:20.291Z,20.16
2023-03-01T20:08:49.144Z,20.13
2023-03-01T20:11:17.687Z,20.12
2023-03-01T20:13:47.407Z,20.09
2023-03-01T20:16:17.550Z,20.07
2023-03-01T20:18:44.488Z,20.09
2023-03-01T20:21:22.865Z,20.08
2023-03-01T20:23:51.899Z,20.07
2023-03-01T20:26:20.313Z,20.06
2023-03-01T20:28:48.467Z,20.06
2023-03-01T20:33:30.559Z,20.03
2023-03-01T20:35:57.205Z,20.02
2023-03-01T20:38:26.140Z,20.00
2023-03-01T20:41:02.787Z,19.98
2023-03-01T20:43:30.014Z,19.94
2023-03-01T20:45:56.918Z,19.96
2023-03-01T20:48:26.336Z,19.96
2023-03-01T20:50:53.781Z,19.94
2023-03-01T20:53:20.353Z,19.93
2023-03-01T20:55:49.752Z,19.91
2023-03-01T20:58:16.239Z,19.91
2023-03-01T21:00:43.035Z,19.89
2023-03-01T21:03:09.648Z,19.89
2023-03-01T21:05:36.240Z,19.87
2023-03-01T21:08:02.875Z,19.76
2023-03-01T21:10:30.643Z,19.86
2023-03-01T21:12:57.284Z,19.85
2023-03-01T21:15:29.418Z,19.87
2023-03-01T21:17:56.413Z,19.87
2023-03-01T21:20:22.929Z,19.83
2023-03-01T21:22:49.500Z,19.87
2023-03-01T21:25:16.216Z,19.86
2023-03-01T21:27:43.028Z,19.86
2023-03-01T21:30:11.220Z,19.86
2023-03-01T21:32:37.866Z,19.84
2023-03-01T21:35:04.722Z,19.85
2023-03-01T21:37:31.347Z,19.81
2023-03-01T21:39:57.932Z,19.83
2023-03-01T21:42:24.534Z,19.82
2023-03-01T21:44:51.096Z,19.81
2023-03-01T21:47:17.720Z,19.81
2023-03-01T21:49:44.328Z,19.81
2023-03-01T21:52:16.716Z,19.82
2023-03-01T21:54:44.586Z,19.70
2023-03-01T21:59:34.756Z,19.81
2023-03-01T22:02:01.496Z,19.80
2023-03-01T22:04:27.995Z,19.80
2023-03-01T22:06:54.605Z,19.79
2023-03-01T22:09:23.536Z,19.79
2023-03-01T22:12:01.942Z,19.79
2023-03-01T22:14:29.692Z,19.79
2023-03-01T22:16:56.633Z,19.78
2023-03-01T22:19:23.326Z,19.78
2023-03-01T22:21:52.706Z,19.77
2023-03-01T22:24:21.639Z,19.77
2023-03-01T22:26:50.120Z,19.75
2023-03-01T22:29:25.806Z,19.75
2023-03-01T22:31:53.409Z,19.75
2023-03-01T22:34:20.805Z,19.73
2023-03-01T22:36:47.886Z,19.74
2023-03-01T22:39:16.186Z,19.74
2023-03-01T22:41:45.582Z,19.73
2023-03-01T22:44:14.084Z,19.73
2023-03-01T22:46:41.067Z,19.72
2023-03-01T22:49:08.217Z,19.72
2023-03-01T22:51:37.742Z,19.72
2023-03-01T22:54:04.654Z,19.71
2023-03-01T22:56:34.183Z,19.71
2023-03-01T22:59:03.200Z,19.70
2023-03-01T23:01:30.653Z,19.70
2023-03-01T23:03:58.141Z,19.69
2023-03-01T23:06:25.177Z,19.69
2023-03-01T23:08:54.314Z,19.68
2023-03-01T23:11:21.672Z,19.69
2023-03-01T23:13:49.059Z,19.67
2023-03-01T23:16:16.751Z,19.67
2023-03-01T23:18:43.505Z,19.67
2023-03-01T23:21:16.886Z,19.64
2023-03-01T23:23:44.512Z,19.66
2023-03-01T23:26:11.082Z,19.66
2023-03-01T23:28:41.164Z,19.64
2023-03-01T23:31:13.878Z,19.63
2023-03-01T23:33:43.141Z,19.63
2023-03-01T23:36:21.398Z,19.61
2023-03-01T23:38:50.020Z,19.60
2023-03-01T23:41:19.938Z,19.59
2023-03-01T23:43:47.869Z,19.58
2023-03-01T23:46:15.877Z,19.56
2023-03-01T23:48:43.892Z,19.56
2023-03-01T23:51:11.177Z,19.55
2023-03-01T23:53:41.342Z,19.54
2023-03-01T23:56:10.063Z,19.53
2023-03-01T23:58:36.590Z,19.51
